sensor_id;sensor_type;location;lat;lon;timestamp;P1;durP1;ratioP1;P2;durP2;ratioP2
3985;SDS011;2007;48.750;9.278;2023-01-01T00:01:50;47.57;;;40.67;;
3985;SDS011;2007;48.750;9.278;2023-01-01T00:04:19;51.93;;;43.37;;
3985;SDS011;2007;48.750;9.278;2023-01-01T00:06:47;55.77;;;44.40;;
3985;SDS011;2007;48.750;9.278;2023-01-01T00:09:15;53.53;;;42.30;;
3985;SDS011;2007;48.750;9.278;2023-01-01T00:12:01;56.20;;;44.27;;
3985;SDS011;2007;48.750;9.278;2023-01-01T00:14:28;55.90;;;45.97;;
3985;SDS011;2007;48.750;9.278;2023-01-01T00:16:56;52.97;;;46.47;;
3985;SDS011;2007;48.750;9.278;2023-01-01T00:19:26;53.97;;;44.50;;
3985;SDS011;2007;48.750;9.278;2023-01-01T00:21:54;58.60;;;47.73;;
3985;SDS011;2007;48.750;9.278;2023-01-01T00:24:22;59.90;;;48.60;;
3985;SDS011;2007;48.750;9.278;2023-01-01T00:26:50;60.40;;;47.30;;
3985;SDS011;2007;48.750;9.278;2023-01-01T00:29:17;63.47;;;50.67;;
3985;SDS011;2007;48.750;9.278;2023-01-01T00:31:45;61.30;;;49.83;;
3985;SDS011;2007;48.750;9.278;2023-01-01T00:34:13;66.00;;;49.57;;
3985;SDS011;2007;48.750;9.278;2023-01-01T00:36:42;56.70;;;49.57;;
3985;SDS011;2007;48.750;9.278;2023-01-01T00:39:10;65.03;;;52.03;;
3985;SDS011;2007;48.750;9.278;2023-01-01T00:41:38;64.70;;;53.87;;
3985;SDS011;2007;48.750;9.278;2023-01-01T00:44:06;65.13;;;49.27;;
3985;SDS011;2007;48.750;9.278;2023-01-01T00:46:34;63.33;;;52.67;;
3985;SDS011;2007;48.750;9.278;2023-01-01T00:49:02;61.17;;;52.17;;
3985;SDS011;2007;48.750;9.278;2023-01-01T00:51:30;68.50;;;55.07;;
3985;SDS011;2007;48.750;9.278;2023-01-01T00:54:03;59.70;;;53.20;;
3985;SDS011;2007;48.750;9.278;2023-01-01T00:56:31;62.53;;;52.77;;
3985;SDS011;2007;48.750;9.278;2023-01-01T00:59:00;66.87;;;53.90;;
3985;SDS011;2007;48.750;9.278;2023-01-01T01:01:28;67.30;;;56.73;;
3985;SDS011;2007;48.750;9.278;2023-01-01T01:03:56;67.93;;;56.97;;
3985;SDS011;2007;48.750;9.278;2023-01-01T01:06:24;65.50;;;54.97;;
3985;SDS011;2007;48.750;9.278;2023-01-01T01:08:52;70.10;;;58.30;;
3985;SDS011;2007;48.750;9.278;2023-01-01T01:11:22;64.53;;;55.80;;
3985;SDS011;2007;48.750;9.278;2023-01-01T01:13:52;70.13;;;57.43;;
3985;SDS011;2007;48.750;9.278;2023-01-01T01:16:22;70.77;;;56.20;;
3985;SDS011;2007;48.750;9.278;2023-01-01T01:18:51;67.43;;;56.37;;
3985;SDS011;2007;48.750;9.278;2023-01-01T01:21:21;73.10;;;58.93;;
3985;SDS011;2007;48.750;9.278;2023-01-01T01:23:50;71.20;;;56.10;;
3985;SDS011;2007;48.750;9.278;2023-01-01T01:26:20;69.37;;;58.60;;
3985;SDS011;2007;48.750;9.278;2023-01-01T01:28:51;69.87;;;57.10;;
3985;SDS011;2007;48.750;9.278;2023-01-01T01:31:20;67.20;;;58.30;;
3985;SDS011;2007;48.750;9.278;2023-01-01T01:33:49;77.90;;;59.50;;
3985;SDS011;2007;48.750;9.278;2023-01-01T01:36:18;67.33;;;58.93;;
3985;SDS011;2007;48.750;9.278;2023-01-01T01:38:46;74.33;;;61.80;;
3985;SDS011;2007;48.750;9.278;2023-01-01T01:41:14;79.13;;;60.10;;
3985;SDS011;2007;48.750;9.278;2023-01-01T01:43:55;76.23;;;60.73;;
3985;SDS011;2007;48.750;9.278;2023-01-01T01:46:27;73.73;;;58.37;;
3985;SDS011;2007;48.750;9.278;2023-01-01T01:49:00;71.33;;;62.07;;
3985;SDS011;2007;48.750;9.278;2023-01-01T01:51:31;75.37;;;59.17;;
3985;SDS011;2007;48.750;9.278;2023-01-01T01:54:04;75.00;;;60.07;;
3985;SDS011;2007;48.750;9.278;2023-01-01T01:56:38;75.40;;;61.37;;
3985;SDS011;2007;48.750;9.278;2023-01-01T01:59:12;66.43;;;57.63;;
3985;SDS011;2007;48.750;9.278;2023-01-01T02:01:42;68.87;;;57.70;;
3985;SDS011;2007;48.750;9.278;2023-01-01T02:04:10;76.00;;;59.93;;
3985;SDS011;2007;48.750;9.278;2023-01-01T02:06:38;68.30;;;56.90;;
3985;SDS011;2007;48.750;9.278;2023-01-01T02:09:07;73.60;;;59.33;;
3985;SDS011;2007;48.750;9.278;2023-01-01T02:11:35;71.20;;;58.00;;
3985;SDS011;2007;48.750;9.278;2023-01-01T02:14:03;72.83;;;60.50;;
3985;SDS011;2007;48.750;9.278;2023-01-01T02:16:35;70.83;;;58.53;;
3985;SDS011;2007;48.750;9.278;2023-01-01T02:19:08;79.87;;;62.53;;
3985;SDS011;2007;48.750;9.278;2023-01-01T02:21:49;70.60;;;57.77;;
3985;SDS011;2007;48.750;9.278;2023-01-01T02:24:40;70.27;;;59.00;;
3985;SDS011;2007;48.750;9.278;2023-01-01T02:27:20;70.77;;;58.03;;
3985;SDS011;2007;48.750;9.278;2023-01-01T02:30:00;70.33;;;58.90;;
3985;SDS011;2007;48.750;9.278;2023-01-01T02:32:31;69.93;;;56.67;;
3985;SDS011;2007;48.750;9.278;2023-01-01T02:35:05;69.73;;;58.57;;
3985;SDS011;2007;48.750;9.278;2023-01-01T02:37:55;69.87;;;58.67;;
3985;SDS011;2007;48.750;9.278;2023-01-01T02:40:25;69.67;;;57.13;;
3985;SDS011;2007;48.750;9.278;2023-01-01T02:42:54;67.90;;;56.40;;
3985;SDS011;2007;48.750;9.278;2023-01-01T02:45:25;68.77;;;57.67;;
3985;SDS011;2007;48.750;9.278;2023-01-01T02:47:53;69.57;;;58.93;;
3985;SDS011;2007;48.750;9.278;2023-01-01T02:50:21;71.63;;;58.10;;
3985;SDS011;2007;48.750;9.278;2023-01-01T02:52:59;68.53;;;60.27;;
3985;SDS011;2007;48.750;9.278;2023-01-01T02:55:43;69.33;;;57.63;;
3985;SDS011;2007;48.750;9.278;2023-01-01T02:58:22;66.37;;;59.07;;
3985;SDS011;2007;48.750;9.278;2023-01-01T03:04:00;72.03;;;58.93;;
3985;SDS011;2007;48.750;9.278;2023-01-01T03:06:36;68.07;;;58.43;;
3985;SDS011;2007;48.750;9.278;2023-01-01T03:09:14;69.60;;;56.20;;
3985;SDS011;2007;48.750;9.278;2023-01-01T03:11:50;65.40;;;57.90;;
3985;SDS011;2007;48.750;9.278;2023-01-01T03:14:24;62.37;;;54.70;;
3985;SDS011;2007;48.750;9.278;2023-01-01T03:17:02;64.50;;;56.47;;
3985;SDS011;2007;48.750;9.278;2023-01-01T03:19:36;62.13;;;54.90;;
3985;SDS011;2007;48.750;9.278;2023-01-01T03:22:08;72.60;;;58.27;;
3985;SDS011;2007;48.750;9.278;2023-01-01T03:24:38;68.37;;;55.77;;
3985;SDS011;2007;48.750;9.278;2023-01-01T03:27:12;66.77;;;56.63;;
3985;SDS011;2007;48.750;9.278;2023-01-01T03:29:43;63.70;;;54.73;;
3985;SDS011;2007;48.750;9.278;2023-01-01T03:32:16;64.40;;;54.60;;
3985;SDS011;2007;48.750;9.278;2023-01-01T03:34:47;63.40;;;56.13;;
3985;SDS011;2007;48.750;9.278;2023-01-01T03:37:21;63.70;;;55.27;;
3985;SDS011;2007;48.750;9.278;2023-01-01T03:39:53;59.40;;;51.33;;
3985;SDS011;2007;48.750;9.278;2023-01-01T03:42:25;69.07;;;55.77;;
3985;SDS011;2007;48.750;9.278;2023-01-01T03:44:59;62.73;;;53.93;;
3985;SDS011;2007;48.750;9.278;2023-01-01T03:47:32;64.90;;;52.53;;
3985;SDS011;2007;48.750;9.278;2023-01-01T03:50:00;65.40;;;52.37;;
3985;SDS011;2007;48.750;9.278;2023-01-01T03:52:31;60.90;;;53.30;;
3985;SDS011;2007;48.750;9.278;2023-01-01T03:55:11;62.13;;;52.10;;
3985;SDS011;2007;48.750;9.278;2023-01-01T03:57:45;59.53;;;50.20;;
3985;SDS011;2007;48.750;9.278;2023-01-01T04:00:21;59.73;;;50.33;;
3985;SDS011;2007;48.750;9.278;2023-01-01T04:02:55;58.53;;;51.40;;
3985;SDS011;2007;48.750;9.278;2023-01-01T04:05:26;61.07;;;51.87;;
3985;SDS011;2007;48.750;9.278;2023-01-01T04:07:55;56.03;;;49.10;;
3985;SDS011;2007;48.750;9.278;2023-01-01T04:10:28;57.00;;;49.50;;
3985;SDS011;2007;48.750;9.278;2023-01-01T04:12:57;57.47;;;48.97;;
3985;SDS011;2007;48.750;9.278;2023-01-01T04:15:30;55.67;;;49.57;;
3985;SDS011;2007;48.750;9.278;2023-01-01T04:18:00;59.57;;;50.70;;
3985;SDS011;2007;48.750;9.278;2023-01-01T04:20:28;55.33;;;48.20;;
3985;SDS011;2007;48.750;9.278;2023-01-01T04:22:56;56.43;;;47.43;;
3985;SDS011;2007;48.750;9.278;2023-01-01T04:25:25;59.97;;;49.47;;
3985;SDS011;2007;48.750;9.278;2023-01-01T04:27:53;54.80;;;48.10;;
3985;SDS011;2007;48.750;9.278;2023-01-01T04:30:23;51.90;;;46.20;;
3985;SDS011;2007;48.750;9.278;2023-01-01T04:32:52;55.07;;;48.47;;
3985;SDS011;2007;48.750;9.278;2023-01-01T04:35:22;51.10;;;45.50;;
3985;SDS011;2007;48.750;9.278;2023-01-01T04:37:50;53.10;;;47.40;;
3985;SDS011;2007;48.750;9.278;2023-01-01T04:40:18;52.00;;;44.43;;
3985;SDS011;2007;48.750;9.278;2023-01-01T04:42:46;50.10;;;44.17;;
3985;SDS011;2007;48.750;9.278;2023-01-01T04:45:13;55.73;;;46.80;;
3985;SDS011;2007;48.750;9.278;2023-01-01T04:47:43;53.67;;;46.53;;
3985;SDS011;2007;48.750;9.278;2023-01-01T04:50:10;50.73;;;44.10;;
3985;SDS011;2007;48.750;9.278;2023-01-01T04:52:40;52.50;;;46.90;;
3985;SDS011;2007;48.750;9.278;2023-01-01T04:55:08;53.57;;;46.40;;
3985;SDS011;2007;48.750;9.278;2023-01-01T04:57:36;50.30;;;44.80;;
3985;SDS011;2007;48.750;9.278;2023-01-01T05:00:04;51.83;;;45.33;;
3985;SDS011;2007;48.750;9.278;2023-01-01T05:02:33;53.10;;;45.67;;
3985;SDS011;2007;48.750;9.278;2023-01-01T05:05:01;52.10;;;43.13;;
3985;SDS011;2007;48.750;9.278;2023-01-01T05:07:29;48.30;;;41.73;;
3985;SDS011;2007;48.750;9.278;2023-01-01T05:10:00;49.60;;;44.23;;
3985;SDS011;2007;48.750;9.278;2023-01-01T05:12:28;47.67;;;42.57;;
3985;SDS011;2007;48.750;9.278;2023-01-01T05:14:56;47.43;;;41.57;;
3985;SDS011;2007;48.750;9.278;2023-01-01T05:17:24;51.40;;;42.47;;
3985;SDS011;2007;48.750;9.278;2023-01-01T05:19:52;51.07;;;41.80;;
3985;SDS011;2007;48.750;9.278;2023-01-01T05:22:19;48.00;;;40.87;;
3985;SDS011;2007;48.750;9.278;2023-01-01T05:24:47;47.03;;;41.97;;
3985;SDS011;2007;48.750;9.278;2023-01-01T05:27:17;47.23;;;41.60;;
3985;SDS011;2007;48.750;9.278;2023-01-01T05:29:44;52.77;;;45.40;;
3985;SDS011;2007;48.750;9.278;2023-01-01T05:32:12;47.67;;;41.20;;
3985;SDS011;2007;48.750;9.278;2023-01-01T05:34:39;48.63;;;41.10;;
3985;SDS011;2007;48.750;9.278;2023-01-01T05:37:07;44.73;;;39.43;;
3985;SDS011;2007;48.750;9.278;2023-01-01T05:39:35;44.83;;;38.43;;
3985;SDS011;2007;48.750;9.278;2023-01-01T05:42:03;43.93;;;39.13;;
3985;SDS011;2007;48.750;9.278;2023-01-01T05:44:32;43.07;;;38.73;;
3985;SDS011;2007;48.750;9.278;2023-01-01T05:47:00;49.07;;;40.80;;
3985;SDS011;2007;48.750;9.278;2023-01-01T05:49:28;46.33;;;41.23;;
3985;SDS011;2007;48.750;9.278;2023-01-01T05:51:56;45.33;;;40.27;;
3985;SDS011;2007;48.750;9.278;2023-01-01T05:54:24;44.23;;;39.40;;
3985;SDS011;2007;48.750;9.278;2023-01-01T05:56:52;44.07;;;39.33;;
3985;SDS011;2007;48.750;9.278;2023-01-01T05:59:19;45.13;;;38.77;;
3985;SDS011;2007;48.750;9.278;2023-01-01T06:01:49;44.47;;;39.60;;
3985;SDS011;2007;48.750;9.278;2023-01-01T06:04:17;46.53;;;38.07;;
3985;SDS011;2007;48.750;9.278;2023-01-01T06:06:45;41.03;;;36.53;;
3985;SDS011;2007;48.750;9.278;2023-01-01T06:09:13;39.83;;;35.57;;
3985;SDS011;2007;48.750;9.278;2023-01-01T06:11:40;42.43;;;37.90;;
3985;SDS011;2007;48.750;9.278;2023-01-01T06:14:08;45.70;;;38.57;;
3985;SDS011;2007;48.750;9.278;2023-01-01T06:16:36;42.43;;;37.80;;
3985;SDS011;2007;48.750;9.278;2023-01-01T06:19:06;41.30;;;36.90;;
3985;SDS011;2007;48.750;9.278;2023-01-01T06:21:34;41.90;;;37.40;;
3985;SDS011;2007;48.750;9.278;2023-01-01T06:24:02;40.83;;;36.40;;
3985;SDS011;2007;48.750;9.278;2023-01-01T06:26:31;41.77;;;36.63;;
3985;SDS011;2007;48.750;9.278;2023-01-01T06:28:59;41.00;;;35.67;;
3985;SDS011;2007;48.750;9.278;2023-01-01T06:31:29;39.53;;;35.33;;
3985;SDS011;2007;48.750;9.278;2023-01-01T06:34:06;36.20;;;32.50;;
3985;SDS011;2007;48.750;9.278;2023-01-01T06:36:35;39.90;;;35.73;;
3985;SDS011;2007;48.750;9.278;2023-01-01T06:39:03;39.77;;;35.10;;
3985;SDS011;2007;48.750;9.278;2023-01-01T06:41:31;39.20;;;35.00;;
3985;SDS011;2007;48.750;9.278;2023-01-01T06:43:59;37.60;;;33.70;;
3985;SDS011;2007;48.750;9.278;2023-01-01T06:46:28;39.50;;;34.17;;
3985;SDS011;2007;48.750;9.278;2023-01-01T06:48:57;38.57;;;34.33;;
3985;SDS011;2007;48.750;9.278;2023-01-01T06:51:29;42.33;;;34.47;;
3985;SDS011;2007;48.750;9.278;2023-01-01T06:53:59;38.80;;;33.80;;
3985;SDS011;2007;48.750;9.278;2023-01-01T06:56:28;38.07;;;33.90;;
3985;SDS011;2007;48.750;9.278;2023-01-01T06:58:56;38.00;;;33.87;;
3985;SDS011;2007;48.750;9.278;2023-01-01T07:01:25;37.70;;;33.73;;
3985;SDS011;2007;48.750;9.278;2023-01-01T07:03:55;41.77;;;34.90;;
3985;SDS011;2007;48.750;9.278;2023-01-01T07:06:24;36.40;;;32.20;;
3985;SDS011;2007;48.750;9.278;2023-01-01T07:08:54;36.60;;;32.50;;
3985;SDS011;2007;48.750;9.278;2023-01-01T07:11:23;33.60;;;29.80;;
3985;SDS011;2007;48.750;9.278;2023-01-01T07:13:51;36.30;;;32.27;;
3985;SDS011;2007;48.750;9.278;2023-01-01T07:16:19;35.67;;;30.27;;
3985;SDS011;2007;48.750;9.278;2023-01-01T07:18:47;35.73;;;29.50;;
3985;SDS011;2007;48.750;9.278;2023-01-01T07:21:26;34.70;;;30.50;;
3985;SDS011;2007;48.750;9.278;2023-01-01T07:23:58;34.83;;;31.00;;
3985;SDS011;2007;48.750;9.278;2023-01-01T07:26:28;34.80;;;31.20;;
3985;SDS011;2007;48.750;9.278;2023-01-01T07:28:57;36.43;;;32.43;;
3985;SDS011;2007;48.750;9.278;2023-01-01T07:31:34;34.37;;;30.57;;
3985;SDS011;2007;48.750;9.278;2023-01-01T07:34:03;33.40;;;29.90;;
3985;SDS011;2007;48.750;9.278;2023-01-01T07:36:31;35.67;;;30.97;;
3985;SDS011;2007;48.750;9.278;2023-01-01T07:39:01;35.27;;;30.77;;
3985;SDS011;2007;48.750;9.278;2023-01-01T07:41:29;31.97;;;28.40;;
3985;SDS011;2007;48.750;9.278;2023-01-01T07:43:57;32.70;;;29.40;;
3985;SDS011;2007;48.750;9.278;2023-01-01T07:46:24;36.63;;;32.73;;
3985;SDS011;2007;48.750;9.278;2023-01-01T07:48:52;34.37;;;30.67;;
3985;SDS011;2007;48.750;9.278;2023-01-01T07:51:21;35.37;;;30.83;;
3985;SDS011;2007;48.750;9.278;2023-01-01T07:53:49;34.90;;;31.30;;
3985;SDS011;2007;48.750;9.278;2023-01-01T07:56:18;34.40;;;29.43;;
3985;SDS011;2007;48.750;9.278;2023-01-01T07:58:46;33.63;;;30.23;;
3985;SDS011;2007;48.750;9.278;2023-01-01T08:01:14;33.73;;;29.40;;
3985;SDS011;2007;48.750;9.278;2023-01-01T08:03:42;37.27;;;29.60;;
3985;SDS011;2007;48.750;9.278;2023-01-01T08:06:11;34.17;;;30.67;;
3985;SDS011;2007;48.750;9.278;2023-01-01T08:08:39;33.83;;;29.53;;
3985;SDS011;2007;48.750;9.278;2023-01-01T08:11:07;32.97;;;29.37;;
3985;SDS011;2007;48.750;9.278;2023-01-01T08:13:37;31.07;;;27.90;;
3985;SDS011;2007;48.750;9.278;2023-01-01T08:16:05;34.47;;;30.90;;
3985;SDS011;2007;48.750;9.278;2023-01-01T08:18:33;35.07;;;31.30;;
3985;SDS011;2007;48.750;9.278;2023-01-01T08:21:02;33.57;;;29.17;;
3985;SDS011;2007;48.750;9.278;2023-01-01T08:23:30;32.70;;;29.37;;
3985;SDS011;2007;48.750;9.278;2023-01-01T08:25:59;33.63;;;29.33;;
3985;SDS011;2007;48.750;9.278;2023-01-01T08:28:28;34.50;;;30.17;;
3985;SDS011;2007;48.750;9.278;2023-01-01T08:30:58;32.40;;;28.63;;
3985;SDS011;2007;48.750;9.278;2023-01-01T08:33:26;36.80;;;30.50;;
3985;SDS011;2007;48.750;9.278;2023-01-01T08:35:54;32.27;;;28.77;;
3985;SDS011;2007;48.750;9.278;2023-01-01T08:38:22;32.27;;;28.97;;
3985;SDS011;2007;48.750;9.278;2023-01-01T08:40:50;32.20;;;28.57;;
3985;SDS011;2007;48.750;9.278;2023-01-01T08:43:18;32.87;;;29.50;;
3985;SDS011;2007;48.750;9.278;2023-01-01T08:45:46;32.53;;;29.07;;
3985;SDS011;2007;48.750;9.278;2023-01-01T08:48:15;33.10;;;28.87;;
3985;SDS011;2007;48.750;9.278;2023-01-01T08:50:43;33.70;;;27.30;;
3985;SDS011;2007;48.750;9.278;2023-01-01T08:53:18;31.77;;;28.37;;
3985;SDS011;2007;48.750;9.278;2023-01-01T08:55:53;32.33;;;28.80;;
3985;SDS011;2007;48.750;9.278;2023-01-01T08:58:22;34.53;;;30.73;;
3985;SDS011;2007;48.750;9.278;2023-01-01T09:00:50;31.70;;;28.30;;
3985;SDS011;2007;48.750;9.278;2023-01-01T09:03:19;31.90;;;28.50;;
3985;SDS011;2007;48.750;9.278;2023-01-01T09:05:47;31.37;;;28.07;;
3985;SDS011;2007;48.750;9.278;2023-01-01T09:08:15;36.03;;;28.07;;
3985;SDS011;2007;48.750;9.278;2023-01-01T09:10:44;30.67;;;27.60;;
3985;SDS011;2007;48.750;9.278;2023-01-01T09:13:13;31.53;;;27.77;;
3985;SDS011;2007;48.750;9.278;2023-01-01T09:15:43;32.93;;;27.73;;
3985;SDS011;2007;48.750;9.278;2023-01-01T09:18:11;30.93;;;27.70;;
3985;SDS011;2007;48.750;9.278;2023-01-01T09:20:41;34.00;;;28.93;;
3985;SDS011;2007;48.750;9.278;2023-01-01T09:23:09;32.63;;;29.10;;
3985;SDS011;2007;48.750;9.278;2023-01-01T09:25:38;32.80;;;28.60;;
3985;SDS011;2007;48.750;9.278;2023-01-01T09:28:07;30.40;;;27.10;;
3985;SDS011;2007;48.750;9.278;2023-01-01T09:30:37;32.90;;;29.40;;
3985;SDS011;2007;48.750;9.278;2023-01-01T09:33:05;33.70;;;29.70;;
3985;SDS011;2007;48.750;9.278;2023-01-01T09:35:32;30.90;;;27.40;;
3985;SDS011;2007;48.750;9.278;2023-01-01T09:38:04;31.17;;;27.80;;
3985;SDS011;2007;48.750;9.278;2023-01-01T09:40:34;31.80;;;28.50;;
3985;SDS011;2007;48.750;9.278;2023-01-01T09:43:17;31.50;;;28.20;;
3985;SDS011;2007;48.750;9.278;2023-01-01T09:45:53;33.40;;;27.23;;
3985;SDS011;2007;48.750;9.278;2023-01-01T09:48:23;30.50;;;26.80;;
3985;SDS011;2007;48.750;9.278;2023-01-01T09:50:52;30.83;;;27.60;;
3985;SDS011;2007;48.750;9.278;2023-01-01T09:53:24;30.90;;;25.03;;
3985;SDS011;2007;48.750;9.278;2023-01-01T09:55:58;27.73;;;24.93;;
3985;SDS011;2007;48.750;9.278;2023-01-01T09:58:28;28.97;;;26.03;;
3985;SDS011;2007;48.750;9.278;2023-01-01T10:01:00;31.20;;;27.80;;
3985;SDS011;2007;48.750;9.278;2023-01-01T10:03:35;31.60;;;28.23;;
3985;SDS011;2007;48.750;9.278;2023-01-01T10:06:12;29.53;;;26.47;;
3985;SDS011;2007;48.750;9.278;2023-01-01T10:08:51;28.93;;;25.67;;
3985;SDS011;2007;48.750;9.278;2023-01-01T10:11:27;28.83;;;25.70;;
3985;SDS011;2007;48.750;9.278;2023-01-01T10:14:03;27.40;;;24.50;;
3985;SDS011;2007;48.750;9.278;2023-01-01T10:16:41;31.53;;;28.20;;
3985;SDS011;2007;48.750;9.278;2023-01-01T10:19:18;29.20;;;26.00;;
3985;SDS011;2007;48.750;9.278;2023-01-01T10:21:52;32.80;;;27.00;;
3985;SDS011;2007;48.750;9.278;2023-01-01T10:24:30;30.00;;;27.03;;
3985;SDS011;2007;48.750;9.278;2023-01-01T10:27:04;28.63;;;25.73;;
3985;SDS011;2007;48.750;9.278;2023-01-01T10:29:35;29.10;;;26.07;;
3985;SDS011;2007;48.750;9.278;2023-01-01T10:32:17;29.00;;;25.70;;
3985;SDS011;2007;48.750;9.278;2023-01-01T10:34:47;29.10;;;26.00;;
3985;SDS011;2007;48.750;9.278;2023-01-01T10:37:17;29.40;;;26.20;;
3985;SDS011;2007;48.750;9.278;2023-01-01T10:39:47;28.50;;;25.40;;
3985;SDS011;2007;48.750;9.278;2023-01-01T10:42:15;29.77;;;26.57;;
3985;SDS011;2007;48.750;9.278;2023-01-01T10:44:43;29.23;;;25.83;;
3985;SDS011;2007;48.750;9.278;2023-01-01T10:47:18;28.83;;;25.80;;
3985;SDS011;2007;48.750;9.278;2023-01-01T10:49:54;28.43;;;24.63;;
3985;SDS011;2007;48.750;9.278;2023-01-01T10:52:24;28.43;;;25.50;;
3985;SDS011;2007;48.750;9.278;2023-01-01T10:54:58;26.50;;;23.67;;
3985;SDS011;2007;48.750;9.278;2023-01-01T10:57:28;27.20;;;24.30;;
3985;SDS011;2007;48.750;9.278;2023-01-01T11:00:09;27.80;;;24.70;;
3985;SDS011;2007;48.750;9.278;2023-01-01T11:02:45;26.30;;;23.47;;
3985;SDS011;2007;48.750;9.278;2023-01-01T11:05:15;25.77;;;23.17;;
3985;SDS011;2007;48.750;9.278;2023-01-01T11:07:47;27.17;;;24.37;;
3985;SDS011;2007;48.750;9.278;2023-01-01T11:10:18;28.40;;;25.03;;
3985;SDS011;2007;48.750;9.278;2023-01-01T11:12:48;26.57;;;23.77;;
3985;SDS011;2007;48.750;9.278;2023-01-01T11:15:35;27.07;;;24.27;;
3985;SDS011;2007;48.750;9.278;2023-01-01T11:18:05;25.93;;;23.23;;
3985;SDS011;2007;48.750;9.278;2023-01-01T11:20:38;28.47;;;24.27;;
3985;SDS011;2007;48.750;9.278;2023-01-01T11:23:16;25.87;;;23.30;;
3985;SDS011;2007;48.750;9.278;2023-01-01T11:25:56;25.30;;;22.70;;
3985;SDS011;2007;48.750;9.278;2023-01-01T11:28:25;26.33;;;23.47;;
3985;SDS011;2007;48.750;9.278;2023-01-01T11:30:57;26.27;;;23.57;;
3985;SDS011;2007;48.750;9.278;2023-01-01T11:33:30;25.17;;;22.47;;
3985;SDS011;2007;48.750;9.278;2023-01-01T11:35:59;26.03;;;23.33;;
3985;SDS011;2007;48.750;9.278;2023-01-01T11:38:28;29.83;;;24.37;;
3985;SDS011;2007;48.750;9.278;2023-01-01T11:41:00;25.57;;;22.97;;
3985;SDS011;2007;48.750;9.278;2023-01-01T11:43:34;25.17;;;22.60;;
3985;SDS011;2007;48.750;9.278;2023-01-01T11:46:06;25.70;;;22.90;;
3985;SDS011;2007;48.750;9.278;2023-01-01T11:48:40;24.27;;;21.70;;
3985;SDS011;2007;48.750;9.278;2023-01-01T11:51:11;25.10;;;21.90;;
3985;SDS011;2007;48.750;9.278;2023-01-01T11:54:07;25.80;;;23.13;;
3985;SDS011;2007;48.750;9.278;2023-01-01T11:56:38;25.73;;;22.93;;
3985;SDS011;2007;48.750;9.278;2023-01-01T11:59:10;24.30;;;21.80;;
3985;SDS011;2007;48.750;9.278;2023-01-01T12:01:42;25.10;;;22.40;;
3985;SDS011;2007;48.750;9.278;2023-01-01T12:04:16;25.80;;;23.07;;
3985;SDS011;2007;48.750;9.278;2023-01-01T12:06:46;25.17;;;22.57;;
3985;SDS011;2007;48.750;9.278;2023-01-01T12:09:21;23.97;;;21.47;;
3985;SDS011;2007;48.750;9.278;2023-01-01T12:11:55;24.00;;;21.40;;
3985;SDS011;2007;48.750;9.278;2023-01-01T12:14:32;23.13;;;20.67;;
3985;SDS011;2007;48.750;9.278;2023-01-01T12:17:08;23.00;;;20.70;;
3985;SDS011;2007;48.750;9.278;2023-01-01T12:19:46;24.43;;;21.90;;
3985;SDS011;2007;48.750;9.278;2023-01-01T12:22:20;25.33;;;22.63;;
3985;SDS011;2007;48.750;9.278;2023-01-01T12:24:49;22.83;;;20.30;;
3985;SDS011;2007;48.750;9.278;2023-01-01T12:27:21;23.37;;;21.00;;
3985;SDS011;2007;48.750;9.278;2023-01-01T12:30:03;23.10;;;20.70;;
3985;SDS011;2007;48.750;9.278;2023-01-01T12:32:44;21.83;;;19.53;;
3985;SDS011;2007;48.750;9.278;2023-01-01T12:35:24;22.53;;;20.13;;
3985;SDS011;2007;48.750;9.278;2023-01-01T12:38:00;23.30;;;20.57;;
3985;SDS011;2007;48.750;9.278;2023-01-01T12:40:41;23.67;;;21.20;;
3985;SDS011;2007;48.750;9.278;2023-01-01T12:43:19;22.43;;;20.00;;
3985;SDS011;2007;48.750;9.278;2023-01-01T12:46:01;22.00;;;19.90;;
3985;SDS011;2007;48.750;9.278;2023-01-01T12:52:13;21.13;;;18.93;;
3985;SDS011;2007;48.750;9.278;2023-01-01T12:54:58;22.20;;;19.90;;
3985;SDS011;2007;48.750;9.278;2023-01-01T12:57:39;20.80;;;18.77;;
3985;SDS011;2007;48.750;9.278;2023-01-01T13:00:14;21.97;;;19.53;;
3985;SDS011;2007;48.750;9.278;2023-01-01T13:02:45;23.33;;;20.90;;
3985;SDS011;2007;48.750;9.278;2023-01-01T13:05:17;22.50;;;19.70;;
3985;SDS011;2007;48.750;9.278;2023-01-01T13:07:49;22.43;;;20.13;;
3985;SDS011;2007;48.750;9.278;2023-01-01T13:10:23;20.30;;;18.10;;
3985;SDS011;2007;48.750;9.278;2023-01-01T13:12:53;22.90;;;20.43;;
3985;SDS011;2007;48.750;9.278;2023-01-01T13:15:43;21.23;;;18.93;;
3985;SDS011;2007;48.750;9.278;2023-01-01T13:21:06;20.53;;;18.33;;
3985;SDS011;2007;48.750;9.278;2023-01-01T13:23:51;20.70;;;18.50;;
3985;SDS011;2007;48.750;9.278;2023-01-01T13:26:29;21.50;;;19.13;;
3985;SDS011;2007;48.750;9.278;2023-01-01T13:32:01;20.73;;;18.53;;
3985;SDS011;2007;48.750;9.278;2023-01-01T13:34:34;21.70;;;18.67;;
3985;SDS011;2007;48.750;9.278;2023-01-01T13:37:24;19.50;;;17.60;;
3985;SDS011;2007;48.750;9.278;2023-01-01T13:39:57;19.87;;;17.77;;
3985;SDS011;2007;48.750;9.278;2023-01-01T13:42:36;19.97;;;18.00;;
3985;SDS011;2007;48.750;9.278;2023-01-01T13:45:07;20.00;;;17.90;;
3985;SDS011;2007;48.750;9.278;2023-01-01T13:48:08;20.20;;;18.13;;
3985;SDS011;2007;48.750;9.278;2023-01-01T13:50:43;19.43;;;17.40;;
3985;SDS011;2007;48.750;9.278;2023-01-01T13:53:25;19.60;;;17.53;;
3985;SDS011;2007;48.750;9.278;2023-01-01T13:56:12;20.67;;;18.07;;
3985;SDS011;2007;48.750;9.278;2023-01-01T13:59:04;19.70;;;17.67;;
3985;SDS011;2007;48.750;9.278;2023-01-01T14:02:00;17.90;;;16.20;;
3985;SDS011;2007;48.750;9.278;2023-01-01T14:04:42;18.50;;;16.60;;
3985;SDS011;2007;48.750;9.278;2023-01-01T14:07:15;20.13;;;18.13;;
3985;SDS011;2007;48.750;9.278;2023-01-01T14:10:14;19.37;;;17.37;;
3985;SDS011;2007;48.750;9.278;2023-01-01T14:12:44;19.63;;;17.60;;
3985;SDS011;2007;48.750;9.278;2023-01-01T14:15:13;19.90;;;17.90;;
3985;SDS011;2007;48.750;9.278;2023-01-01T14:17:42;18.50;;;16.63;;
3985;SDS011;2007;48.750;9.278;2023-01-01T14:20:15;18.80;;;17.00;;
3985;SDS011;2007;48.750;9.278;2023-01-01T14:22:45;18.50;;;16.53;;
3985;SDS011;2007;48.750;9.278;2023-01-01T14:25:15;17.67;;;15.87;;
3985;SDS011;2007;48.750;9.278;2023-01-01T14:27:49;18.53;;;16.53;;
3985;SDS011;2007;48.750;9.278;2023-01-01T14:30:18;17.97;;;16.00;;
3985;SDS011;2007;48.750;9.278;2023-01-01T14:32:53;18.20;;;16.30;;
3985;SDS011;2007;48.750;9.278;2023-01-01T14:35:24;19.57;;;16.20;;
3985;SDS011;2007;48.750;9.278;2023-01-01T14:37:52;19.13;;;17.10;;
3985;SDS011;2007;48.750;9.278;2023-01-01T14:40:21;18.80;;;16.90;;
3985;SDS011;2007;48.750;9.278;2023-01-01T14:42:56;18.13;;;16.30;;
3985;SDS011;2007;48.750;9.278;2023-01-01T14:45:27;17.70;;;16.00;;
3985;SDS011;2007;48.750;9.278;2023-01-01T14:47:57;17.40;;;15.70;;
3985;SDS011;2007;48.750;9.278;2023-01-01T14:50:28;17.23;;;15.53;;
3985;SDS011;2007;48.750;9.278;2023-01-01T14:53:02;18.13;;;16.43;;
3985;SDS011;2007;48.750;9.278;2023-01-01T14:55:38;18.10;;;16.20;;
3985;SDS011;2007;48.750;9.278;2023-01-01T14:58:09;17.77;;;15.83;;
3985;SDS011;2007;48.750;9.278;2023-01-01T15:00:42;17.47;;;15.60;;
3985;SDS011;2007;48.750;9.278;2023-01-01T15:03:11;17.47;;;15.77;;
3985;SDS011;2007;48.750;9.278;2023-01-01T15:05:41;19.63;;;16.27;;
3985;SDS011;2007;48.750;9.278;2023-01-01T15:08:17;16.47;;;14.87;;
3985;SDS011;2007;48.750;9.278;2023-01-01T15:10:47;16.23;;;14.53;;
3985;SDS011;2007;48.750;9.278;2023-01-01T15:13:16;17.27;;;15.57;;
3985;SDS011;2007;48.750;9.278;2023-01-01T15:15:46;15.53;;;14.00;;
3985;SDS011;2007;48.750;9.278;2023-01-01T15:18:34;17.03;;;14.97;;
3985;SDS011;2007;48.750;9.278;2023-01-01T15:21:06;16.47;;;14.87;;
3985;SDS011;2007;48.750;9.278;2023-01-01T15:23:42;16.80;;;15.13;;
3985;SDS011;2007;48.750;9.278;2023-01-01T15:26:17;14.87;;;13.37;;
3985;SDS011;2007;48.750;9.278;2023-01-01T15:28:53;18.87;;;15.77;;